sensor_id;sensor_type;location;lat;lon;timestamp;P1;durP1;ratioP1;P2;durP2;ratioP2
12459;SDS011;6295;49.452;8.466;2024-03-23T08:14:58;2.77;;;1.80;;
12459;SDS011;6295;49.452;8.466;2024-03-23T08:19:00;3.53;;;1.70;;
12459;SDS011;6295;49.452;8.466;2024-03-23T08:23:04;3.20;;;2.00;;
12459;SDS011;6295;49.452;8.466;2024-03-23T08:27:07;4.90;;;1.90;;
12459;SDS011;6295;49.452;8.466;2024-03-23T08:31:11;3.00;;;1.50;;
12459;SDS011;6295;49.452;8.466;2024-03-23T08:35:17;4.57;;;1.73;;
12459;SDS011;6295;49.452;8.466;2024-03-23T08:39:20;6.00;;;1.90;;
12459;SDS011;6295;49.452;8.466;2024-03-23T08:43:25;4.90;;;2.07;;
12459;SDS011;6295;49.452;8.466;2024-03-23T08:47:32;5.27;;;2.47;;
12459;SDS011;6295;49.452;8.466;2024-03-23T08:51:39;4.30;;;2.30;;
12459;SDS011;6295;49.452;8.466;2024-03-23T08:55:42;3.40;;;1.87;;
12459;SDS011;6295;49.452;8.466;2024-03-23T08:59:54;8.17;;;2.10;;
12459;SDS011;6295;49.452;8.466;2024-03-23T09:03:59;3.77;;;2.20;;
12459;SDS011;6295;49.452;8.466;2024-03-23T09:08:02;6.57;;;3.00;;
12459;SDS011;6295;49.452;8.466;2024-03-23T09:12:06;7.23;;;2.70;;
12459;SDS011;6295;49.452;8.466;2024-03-23T09:16:10;6.37;;;2.50;;
12459;SDS011;6295;49.452;8.466;2024-03-23T09:20:16;6.40;;;2.60;;
12459;SDS011;6295;49.452;8.466;2024-03-23T09:24:18;6.70;;;2.60;;
12459;SDS011;6295;49.452;8.466;2024-03-23T09:28:21;5.00;;;2.43;;
12459;SDS011;6295;49.452;8.466;2024-03-23T09:32:24;4.43;;;2.17;;
12459;SDS011;6295;49.452;8.466;2024-03-23T09:36:28;8.00;;;2.93;;
12459;SDS011;6295;49.452;8.466;2024-03-23T09:40:31;7.07;;;2.93;;
12459;SDS011;6295;49.452;8.466;2024-03-23T09:44:33;8.00;;;2.90;;
12459;SDS011;6295;49.452;8.466;2024-03-23T09:48:37;6.83;;;2.80;;
12459;SDS011;6295;49.452;8.466;2024-03-23T09:52:42;5.50;;;2.70;;
12459;SDS011;6295;49.452;8.466;2024-03-23T09:56:48;6.93;;;2.77;;
12459;SDS011;6295;49.452;8.466;2024-03-23T10:00:53;6.77;;;2.90;;
12459;SDS011;6295;49.452;8.466;2024-03-23T10:04:56;4.80;;;2.37;;
12459;SDS011;6295;49.452;8.466;2024-03-23T10:09:00;6.47;;;2.00;;
12459;SDS011;6295;49.452;8.466;2024-03-23T10:13:04;5.53;;;2.80;;
12459;SDS011;6295;49.452;8.466;2024-03-23T10:17:11;6.43;;;2.10;;
12459;SDS011;6295;49.452;8.466;2024-03-23T10:21:18;5.80;;;2.00;;
12459;SDS011;6295;49.452;8.466;2024-03-23T10:25:25;6.20;;;2.40;;
12459;SDS011;6295;49.452;8.466;2024-03-23T10:29:29;7.17;;;2.30;;
12459;SDS011;6295;49.452;8.466;2024-03-23T10:33:30;6.80;;;2.10;;
12459;SDS011;6295;49.452;8.466;2024-03-23T10:37:32;5.73;;;2.10;;
12459;SDS011;6295;49.452;8.466;2024-03-23T10:41:36;4.63;;;2.00;;
12459;SDS011;6295;49.452;8.466;2024-03-23T10:45:40;4.90;;;2.07;;
12459;SDS011;6295;49.452;8.466;2024-03-23T10:49:42;5.27;;;1.80;;
12459;SDS011;6295;49.452;8.466;2024-03-23T10:53:48;5.00;;;1.80;;
12459;SDS011;6295;49.452;8.466;2024-03-23T10:57:57;5.20;;;1.80;;
12459;SDS011;6295;49.452;8.466;2024-03-23T11:02:01;10.60;;;2.10;;
12459;SDS011;6295;49.452;8.466;2024-03-23T11:06:07;7.50;;;1.93;;
12459;SDS011;6295;49.452;8.466;2024-03-23T11:10:24;6.67;;;2.00;;
12459;SDS011;6295;49.452;8.466;2024-03-23T11:14:34;5.50;;;1.97;;
12459;SDS011;6295;49.452;8.466;2024-03-23T11:18:38;5.00;;;2.00;;
12459;SDS011;6295;49.452;8.466;2024-03-23T11:22:45;5.57;;;2.10;;
12459;SDS011;6295;49.452;8.466;2024-03-23T11:26:50;5.67;;;2.10;;
12459;SDS011;6295;49.452;8.466;2024-03-23T11:31:02;5.27;;;1.93;;
12459;SDS011;6295;49.452;8.466;2024-03-23T11:35:24;6.97;;;2.20;;
12459;SDS011;6295;49.452;8.466;2024-03-23T11:39:29;4.33;;;1.90;;
12459;SDS011;6295;49.452;8.466;2024-03-23T11:43:31;5.90;;;2.30;;
12459;SDS011;6295;49.452;8.466;2024-03-23T11:47:35;9.23;;;2.20;;
12459;SDS011;6295;49.452;8.466;2024-03-23T11:51:36;4.63;;;2.07;;
12459;SDS011;6295;49.452;8.466;2024-03-23T11:55:39;5.20;;;2.07;;
12459;SDS011;6295;49.452;8.466;2024-03-23T11:59:41;5.70;;;2.43;;
12459;SDS011;6295;49.452;8.466;2024-03-23T12:03:48;4.73;;;2.60;;
12459;SDS011;6295;49.452;8.466;2024-03-23T12:07:51;4.30;;;2.20;;
12459;SDS011;6295;49.452;8.466;2024-03-23T12:11:54;3.17;;;1.93;;
12459;SDS011;6295;49.452;8.466;2024-03-23T12:16:09;2.50;;;1.80;;
12459;SDS011;6295;49.452;8.466;2024-03-23T12:20:17;5.50;;;2.10;;
12459;SDS011;6295;49.452;8.466;2024-03-23T12:24:22;3.77;;;2.00;;
12459;SDS011;6295;49.452;8.466;2024-03-23T12:28:29;5.43;;;1.70;;
12459;SDS011;6295;49.452;8.466;2024-03-23T12:32:32;3.57;;;1.00;;
12459;SDS011;6295;49.452;8.466;2024-03-23T12:36:36;3.17;;;1.20;;
12459;SDS011;6295;49.452;8.466;2024-03-23T12:40:38;1.77;;;0.97;;
12459;SDS011;6295;49.452;8.466;2024-03-23T12:44:41;3.97;;;1.30;;
12459;SDS011;6295;49.452;8.466;2024-03-23T12:48:44;2.70;;;1.20;;
12459;SDS011;6295;49.452;8.466;2024-03-23T12:52:47;2.07;;;1.17;;
12459;SDS011;6295;49.452;8.466;2024-03-23T12:56:50;6.37;;;1.60;;
12459;SDS011;6295;49.452;8.466;2024-03-23T13:00:52;12.70;;;1.47;;
12459;SDS011;6295;49.452;8.466;2024-03-23T13:04:53;6.53;;;1.40;;
12459;SDS011;6295;49.452;8.466;2024-03-23T13:08:57;4.73;;;1.50;;
12459;SDS011;6295;49.452;8.466;2024-03-23T13:12:59;2.87;;;1.20;;
12459;SDS011;6295;49.452;8.466;2024-03-23T13:17:01;5.67;;;2.43;;
12459;SDS011;6295;49.452;8.466;2024-03-23T13:21:04;5.60;;;1.80;;
12459;SDS011;6295;49.452;8.466;2024-03-23T13:25:07;3.10;;;1.20;;
12459;SDS011;6295;49.452;8.466;2024-03-23T13:29:10;4.00;;;1.20;;
12459;SDS011;6295;49.452;8.466;2024-03-23T13:33:13;4.10;;;1.13;;
12459;SDS011;6295;49.452;8.466;2024-03-23T13:37:15;2.80;;;1.10;;
12459;SDS011;6295;49.452;8.466;2024-03-23T13:41:21;2.87;;;1.00;;
12459;SDS011;6295;49.452;8.466;2024-03-23T13:45:23;1.67;;;0.90;;
12459;SDS011;6295;49.452;8.466;2024-03-23T13:49:27;2.30;;;0.90;;
12459;SDS011;6295;49.452;8.466;2024-03-23T13:53:31;2.40;;;1.00;;
12459;SDS011;6295;49.452;8.466;2024-03-23T13:57:35;1.40;;;0.77;;
12459;SDS011;6295;49.452;8.466;2024-03-23T14:01:38;2.65;;;1.05;;
12459;SDS011;6295;49.452;8.466;2024-03-23T14:05:41;2.77;;;0.97;;
12459;SDS011;6295;49.452;8.466;2024-03-23T14:09:45;2.53;;;1.10;;
12459;SDS011;6295;49.452;8.466;2024-03-23T14:13:48;2.23;;;0.97;;
12459;SDS011;6295;49.452;8.466;2024-03-23T14:17:53;3.73;;;1.00;;
12459;SDS011;6295;49.452;8.466;2024-03-23T14:21:54;2.30;;;0.93;;
12459;SDS011;6295;49.452;8.466;2024-03-23T14:25:57;3.43;;;1.00;;
12459;SDS011;6295;49.452;8.466;2024-03-23T14:30:00;1.63;;;0.90;;
12459;SDS011;6295;49.452;8.466;2024-03-23T14:34:03;2.13;;;1.00;;
12459;SDS011;6295;49.452;8.466;2024-03-23T14:38:07;1.77;;;0.90;;
12459;SDS011;6295;49.452;8.466;2024-03-23T14:42:11;2.67;;;0.90;;
12459;SDS011;6295;49.452;8.466;2024-03-23T14:46:15;3.23;;;0.90;;
12459;SDS011;6295;49.452;8.466;2024-03-23T14:50:18;2.97;;;0.90;;
12459;SDS011;6295;49.452;8.466;2024-03-23T14:54:21;1.77;;;0.90;;
12459;SDS011;6295;49.452;8.466;2024-03-23T14:58:24;3.43;;;1.00;;
12459;SDS011;6295;49.452;8.466;2024-03-23T15:02:28;1.50;;;0.90;;
12459;SDS011;6295;49.452;8.466;2024-03-23T15:06:30;3.27;;;0.93;;
12459;SDS011;6295;49.452;8.466;2024-03-23T15:10:33;2.20;;;0.90;;
12459;SDS011;6295;49.452;8.466;2024-03-23T15:14:35;2.97;;;0.97;;
12459;SDS011;6295;49.452;8.466;2024-03-23T15:18:39;2.77;;;1.10;;
12459;SDS011;6295;49.452;8.466;2024-03-23T15:22:41;4.07;;;1.20;;
12459;SDS011;6295;49.452;8.466;2024-03-23T15:26:43;1.87;;;0.90;;
12459;SDS011;6295;49.452;8.466;2024-03-23T15:30:46;4.63;;;1.30;;
12459;SDS011;6295;49.452;8.466;2024-03-23T15:34:50;1.93;;;1.07;;
12459;SDS011;6295;49.452;8.466;2024-03-23T15:38:52;2.13;;;1.00;;
12459;SDS011;6295;49.452;8.466;2024-03-23T15:42:55;2.27;;;1.00;;
12459;SDS011;6295;49.452;8.466;2024-03-23T15:46:57;3.77;;;1.07;;
12459;SDS011;6295;49.452;8.466;2024-03-23T15:51:01;3.43;;;0.87;;
12459;SDS011;6295;49.452;8.466;2024-03-23T15:55:04;3.33;;;1.03;;
12459;SDS011;6295;49.452;8.466;2024-03-23T15:59:07;3.03;;;0.87;;
12459;SDS011;6295;49.452;8.466;2024-03-23T16:03:09;1.13;;;0.60;;
12459;SDS011;6295;49.452;8.466;2024-03-23T16:07:14;0.60;;;0.53;;
12459;SDS011;6295;49.452;8.466;2024-03-23T16:11:18;0.93;;;0.50;;
12459;SDS011;6295;49.452;8.466;2024-03-23T16:15:20;1.03;;;0.63;;
12459;SDS011;6295;49.452;8.466;2024-03-23T16:19:24;1.10;;;0.60;;
12459;SDS011;6295;49.452;8.466;2024-03-23T16:23:31;0.90;;;0.60;;
12459;SDS011;6295;49.452;8.466;2024-03-23T16:27:36;1.20;;;0.77;;
12459;SDS011;6295;49.452;8.466;2024-03-23T16:31:43;1.37;;;0.70;;
12459;SDS011;6295;49.452;8.466;2024-03-23T16:35:56;2.00;;;0.70;;
12459;SDS011;6295;49.452;8.466;2024-03-23T16:40:06;2.23;;;0.80;;
12459;SDS011;6295;49.452;8.466;2024-03-23T16:44:09;2.10;;;0.60;;
12459;SDS011;6295;49.452;8.466;2024-03-23T16:48:11;1.70;;;0.80;;
12459;SDS011;6295;49.452;8.466;2024-03-23T16:52:13;0.87;;;0.77;;
12459;SDS011;6295;49.452;8.466;2024-03-23T16:56:17;1.87;;;0.70;;
12459;SDS011;6295;49.452;8.466;2024-03-23T17:00:19;1.60;;;0.70;;
12459;SDS011;6295;49.452;8.466;2024-03-23T17:04:21;0.83;;;0.57;;
12459;SDS011;6295;49.452;8.466;2024-03-23T17:08:24;1.10;;;0.70;;
12459;SDS011;6295;49.452;8.466;2024-03-23T17:12:27;0.70;;;0.60;;
12459;SDS011;6295;49.452;8.466;2024-03-23T17:16:30;1.13;;;0.60;;
12459;SDS011;6295;49.452;8.466;2024-03-23T17:20:37;1.37;;;0.77;;
12459;SDS011;6295;49.452;8.466;2024-03-23T17:24:43;0.97;;;0.50;;
12459;SDS011;6295;49.452;8.466;2024-03-23T17:28:50;1.00;;;0.60;;
12459;SDS011;6295;49.452;8.466;2024-03-23T17:32:56;2.17;;;0.70;;
12459;SDS011;6295;49.452;8.466;2024-03-23T17:37:00;1.50;;;0.70;;
12459;SDS011;6295;49.452;8.466;2024-03-23T17:41:03;1.60;;;0.80;;
12459;SDS011;6295;49.452;8.466;2024-03-23T17:45:09;1.60;;;0.70;;
12459;SDS011;6295;49.452;8.466;2024-03-23T17:49:13;1.97;;;0.67;;
12459;SDS011;6295;49.452;8.466;2024-03-23T17:53:16;1.27;;;0.77;;
